createdAt,value
2017-10-14T00:00:45.748Z,0
2017-10-14T00:01:46.463Z,0
2017-10-14T00:02:47.177Z,0
2017-10-14T00:03:47.904Z,0
2017-10-14T00:04:48.617Z,0
2017-10-14T00:05:49.329Z,0
2017-10-14T00:06:50.042Z,0
2017-10-14T00:07:50.756Z,0
2017-10-14T00:08:51.486Z,0
2017-10-14T00:09:52.204Z,0
2017-10-14T00:10:52.910Z,0
2017-10-14T00:11:53.624Z,0
2017-10-14T00:12:54.339Z,0
2017-10-14T00:13:55.051Z,0
2017-10-14T00:14:55.778Z,0
2017-10-14T00:15:56.490Z,0
2017-10-14T00:16:57.217Z,0
2017-10-14T00:17:57.931Z,0
2017-10-14T00:18:58.642Z,0
2017-10-14T00:19:59.363Z,0
2017-10-14T00:21:00.070Z,0
2017-10-14T00:22:00.797Z,0
2017-10-14T00:23:01.510Z,0
2017-10-14T00:24:02.222Z,0
2017-10-14T00:25:02.935Z,0
2017-10-14T00:26:03.663Z,0
2017-10-14T00:27:04.376Z,0
2017-10-14T00:28:05.088Z,0
2017-10-14T00:29:05.802Z,0
2017-10-14T00:30:06.516Z,0
2017-10-14T00:31:07.230Z,0
2017-10-14T00:32:07.944Z,0
2017-10-14T00:33:08.674Z,0
2017-10-14T00:34:09.387Z,0
2017-10-14T00:35:10.107Z,0
2017-10-14T00:36:10.815Z,0
2017-10-14T00:37:11.539Z,0
2017-10-14T00:38:12.253Z,0
2017-10-14T00:39:12.978Z,0
2017-10-14T00:40:13.695Z,0
2017-10-14T00:41:14.412Z,0
2017-10-14T00:42:15.121Z,0
2017-10-14T00:43:15.851Z,0
2017-10-14T00:44:16.561Z,0
2017-10-14T00:45:17.273Z,0
2017-10-14T00:46:17.989Z,0
2017-10-14T00:47:18.717Z,0
2017-10-14T00:48:19.442Z,0
2017-10-14T00:49:20.156Z,0
2017-10-14T00:50:20.870Z,0
2017-10-14T00:51:21.585Z,0
2017-10-14T00:52:22.301Z,0
2017-10-14T00:53:23.011Z,0
2017-10-14T00:54:23.740Z,0
2017-10-14T00:55:24.467Z,0
2017-10-14T00:56:25.195Z,0
2017-10-14T00:57:25.909Z,0
2017-10-14T00:58:26.624Z,0
2017-10-14T00:59:27.340Z,0
2017-10-14T01:00:28.051Z,0
2017-10-14T01:01:28.762Z,0
2017-10-14T01:02:29.487Z,0
2017-10-14T01:03:30.201Z,0
2017-10-14T01:04:30.912Z,0
2017-10-14T01:05:31.640Z,0
2017-10-14T01:06:32.369Z,0
2017-10-14T01:07:33.095Z,0
2017-10-14T01:08:33.811Z,0
2017-10-14T01:09:34.536Z,0
2017-10-14T01:10:35.250Z,0
2017-10-14T01:11:35.961Z,0
2017-10-14T01:12:36.677Z,0
2017-10-14T01:13:37.389Z,0
2017-10-14T01:14:38.102Z,0
2017-10-14T01:15:38.832Z,0
2017-10-14T01:16:39.549Z,0
2017-10-14T01:17:40.262Z,0
2017-10-14T01:18:40.975Z,0
2017-10-14T01:19:41.693Z,0
2017-10-14T01:20:42.402Z,0
2017-10-14T01:21:43.116Z,0
2017-10-14T01:22:43.830Z,0
2017-10-14T01:23:44.545Z,0
2017-10-14T01:24:45.258Z,0
2017-10-14T01:25:45.970Z,0
2017-10-14T01:26:46.684Z,0
2017-10-14T01:27:47.397Z,0
2017-10-14T01:28:48.109Z,0
2017-10-14T01:29:48.824Z,0
2017-10-14T01:30:49.539Z,0
2017-10-14T01:31:50.254Z,0
2017-10-14T01:32:50.969Z,0
2017-10-14T01:33:51.681Z,0
2017-10-14T01:34:52.394Z,0
2017-10-14T01:35:53.120Z,0
2017-10-14T01:36:53.833Z,0
2017-10-14T01:37:54.548Z,0
2017-10-14T01:38:55.257Z,0
2017-10-14T01:39:55.969Z,0
2017-10-14T01:40:56.697Z,0
2017-10-14T01:41:57.422Z,0
2017-10-14T01:42:58.135Z,0
2017-10-14T01:43:58.849Z,0
2017-10-14T01:44:59.563Z,0
2017-10-14T01:46:00.283Z,0
2017-10-14T01:47:00.991Z,0
2017-10-14T01:48:01.721Z,0
2017-10-14T01:49:02.415Z,0
2017-10-14T01:50:03.129Z,0
2017-10-14T01:51:03.845Z,0
2017-10-14T01:52:04.558Z,0
2017-10-14T01:53:05.273Z,0
2017-10-14T01:54:05.986Z,0
2017-10-14T01:55:06.698Z,0
2017-10-14T01:56:07.411Z,0
2017-10-14T01:57:08.124Z,0
2017-10-14T01:58:08.837Z,0
2017-10-14T01:59:09.549Z,0
2017-10-14T02:00:10.277Z,0
2017-10-14T02:01:11.005Z,0
2017-10-14T02:02:11.733Z,0
2017-10-14T02:03:12.445Z,0
2017-10-14T02:04:13.159Z,0
2017-10-14T02:05:13.872Z,0
2017-10-14T02:06:14.586Z,0
2017-10-14T02:07:15.315Z,0
2017-10-14T02:08:16.028Z,0
2017-10-14T02:09:16.742Z,0
2017-10-14T02:10:17.454Z,0
2017-10-14T02:11:18.166Z,0
2017-10-14T02:12:18.879Z,0
2017-10-14T02:13:19.600Z,0
2017-10-14T02:14:20.311Z,0
2017-10-14T02:15:21.038Z,0
2017-10-14T02:16:21.750Z,0
2017-10-14T02:17:22.464Z,0
2017-10-14T02:18:23.180Z,0
2017-10-14T02:19:23.904Z,0
2017-10-14T02:20:24.624Z,0
2017-10-14T02:21:25.345Z,0
2017-10-14T02:22:26.060Z,0
2017-10-14T02:23:26.774Z,0
2017-10-14T02:24:27.487Z,0
2017-10-14T02:25:28.199Z,0
2017-10-14T02:26:28.913Z,0
2017-10-14T02:27:29.628Z,0
2017-10-14T02:28:30.341Z,0
2017-10-14T02:29:31.055Z,0
2017-10-14T02:30:31.768Z,0
2017-10-14T02:31:32.480Z,0
2017-10-14T02:32:33.193Z,0
2017-10-14T02:33:33.905Z,0
2017-10-14T02:34:34.620Z,0
2017-10-14T02:35:35.349Z,0
2017-10-14T02:36:36.061Z,0
2017-10-14T02:37:36.789Z,0
2017-10-14T02:38:37.516Z,0
2017-10-14T02:39:38.242Z,0
2017-10-14T02:40:38.956Z,0
2017-10-14T02:41:39.669Z,0
2017-10-14T02:42:40.384Z,0
2017-10-14T02:43:41.114Z,0
2017-10-14T02:44:41.826Z,0
2017-10-14T02:45:42.541Z,0
2017-10-14T02:46:43.253Z,0
2017-10-14T02:47:43.965Z,0
2017-10-14T02:48:44.690Z,0
2017-10-14T02:49:45.403Z,0
2017-10-14T02:50:46.132Z,0
2017-10-14T02:51:46.844Z,0
2017-10-14T02:52:47.558Z,0
2017-10-14T02:53:48.272Z,0
2017-10-14T02:54:48.992Z,0
2017-10-14T02:55:49.696Z,0
2017-10-14T02:56:50.409Z,0
2017-10-14T02:57:51.121Z,0
2017-10-14T02:58:51.835Z,0
2017-10-14T02:59:52.548Z,0
2017-10-14T03:00:53.262Z,0
2017-10-14T03:01:53.976Z,0
2017-10-14T03:02:54.689Z,0
2017-10-14T03:03:55.400Z,0
2017-10-14T03:04:56.114Z,0
2017-10-14T03:05:56.829Z,0
2017-10-14T03:06:57.543Z,0
2017-10-14T03:07:58.257Z,0
2017-10-14T03:08:58.970Z,0
2017-10-14T03:09:59.696Z,0
2017-10-14T03:11:00.410Z,0
2017-10-14T03:12:01.123Z,0
2017-10-14T03:13:01.836Z,0
2017-10-14T03:14:02.549Z,0
2017-10-14T03:15:03.261Z,0
2017-10-14T03:16:03.974Z,0
2017-10-14T03:17:04.707Z,0
2017-10-14T03:18:05.413Z,0
2017-10-14T03:19:06.138Z,0
2017-10-14T03:20:06.851Z,0
2017-10-14T03:21:07.564Z,0
2017-10-14T03:22:08.276Z,0
2017-10-14T03:23:08.990Z,0
2017-10-14T03:24:09.718Z,0
2017-10-14T03:25:10.432Z,0
2017-10-14T03:26:11.145Z,0
2017-10-14T03:27:11.867Z,0
2017-10-14T03:28:12.580Z,0
2017-10-14T03:29:13.294Z,0
2017-10-14T03:30:14.019Z,0
2017-10-14T03:31:14.735Z,0
2017-10-14T03:32:15.447Z,0
2017-10-14T03:33:16.158Z,0
2017-10-14T03:34:16.870Z,0
2017-10-14T03:35:17.594Z,0
2017-10-14T03:36:18.308Z,0
2017-10-14T03:37:19.043Z,0
2017-10-14T03:38:19.750Z,0
2017-10-14T03:39:20.462Z,0
2017-10-14T03:40:21.174Z,0
2017-10-14T03:41:21.886Z,0
2017-10-14T03:42:22.601Z,0
2017-10-14T03:43:23.314Z,0
2017-10-14T03:44:24.028Z,0
2017-10-14T03:45:24.745Z,0
2017-10-14T03:46:25.467Z,0
2017-10-14T03:47:26.195Z,0
2017-10-14T03:48:26.925Z,0
2017-10-14T03:49:27.632Z,0
2017-10-14T03:50:28.358Z,0
2017-10-14T03:51:29.070Z,0
2017-10-14T03:52:29.796Z,0
2017-10-14T03:53:30.514Z,0
2017-10-14T03:54:31.220Z,0
2017-10-14T03:55:31.933Z,0
2017-10-14T03:56:32.650Z,0
2017-10-14T03:57:33.358Z,0
2017-10-14T03:58:34.085Z,0
2017-10-14T03:59:34.796Z,0
2017-10-14T04:00:35.513Z,0
2017-10-14T04:01:36.233Z,0
2017-10-14T04:02:36.946Z,0
2017-10-14T04:03:37.663Z,0
2017-10-14T04:04:38.371Z,0
2017-10-14T04:05:39.085Z,0
2017-10-14T04:06:39.811Z,0
2017-10-14T04:07:40.523Z,0
2017-10-14T04:08:41.236Z,0
2017-10-14T04:09:41.948Z,0
2017-10-14T04:10:42.659Z,0
2017-10-14T04:11:43.372Z,0
2017-10-14T04:12:44.086Z,0
2017-10-14T04:13:44.814Z,0
2017-10-14T04:14:45.527Z,0
2017-10-14T04:15:46.241Z,0
2017-10-14T04:16:46.955Z,0
2017-10-14T04:17:47.668Z,0
2017-10-14T04:18:48.380Z,0
2017-10-14T04:19:49.093Z,0
2017-10-14T04:20:49.806Z,0
2017-10-14T04:21:50.533Z,0
2017-10-14T04:22:51.246Z,0
2017-10-14T04:23:51.960Z,0
2017-10-14T04:24:52.674Z,0
2017-10-14T04:25:53.388Z,0
2017-10-14T04:26:54.101Z,0
2017-10-14T04:27:54.814Z,0
2017-10-14T04:28:55.532Z,0
2017-10-14T04:29:56.238Z,0
2017-10-14T04:30:56.951Z,0
2017-10-14T04:31:57.661Z,0
2017-10-14T04:32:58.388Z,0
2017-10-14T04:33:59.100Z,0
2017-10-14T04:34:59.812Z,0
2017-10-14T04:36:00.526Z,0
2017-10-14T04:37:01.248Z,0
2017-10-14T04:38:01.964Z,0
2017-10-14T04:39:02.668Z,0
2017-10-14T04:40:03.394Z,0
2017-10-14T04:41:04.113Z,0
2017-10-14T04:42:04.821Z,0
2017-10-14T04:43:05.533Z,0
2017-10-14T04:44:06.246Z,0
2017-10-14T04:45:06.959Z,0
2017-10-14T04:46:07.686Z,0
2017-10-14T04:47:08.401Z,0
2017-10-14T04:48:09.112Z,0
2017-10-14T04:49:09.844Z,0
2017-10-14T04:50:10.552Z,0
2017-10-14T04:51:11.270Z,0
2017-10-14T04:52:11.993Z,0
2017-10-14T04:53:12.707Z,0
2017-10-14T04:54:13.424Z,0
2017-10-14T04:55:14.133Z,0
2017-10-14T04:56:14.845Z,0
2017-10-14T04:57:15.558Z,0
2017-10-14T04:58:16.270Z,0
2017-10-14T04:59:16.998Z,0
2017-10-14T05:00:17.712Z,0
2017-10-14T05:01:18.437Z,0
2017-10-14T05:02:19.152Z,0
2017-10-14T05:03:19.864Z,0
2017-10-14T05:04:20.576Z,0
2017-10-14T05:05:21.306Z,0
2017-10-14T05:06:22.020Z,0
2017-10-14T05:07:22.731Z,0
2017-10-14T05:08:23.444Z,0
2017-10-14T05:09:24.158Z,0
2017-10-14T05:10:24.872Z,0
2017-10-14T05:11:25.586Z,0
2017-10-14T05:12:26.299Z,0
2017-10-14T05:13:27.011Z,0
2017-10-14T05:14:27.727Z,0
2017-10-14T05:15:28.435Z,0
2017-10-14T05:16:29.164Z,0
2017-10-14T05:17:29.877Z,0
2017-10-14T05:18:30.589Z,0
2017-10-14T05:19:31.317Z,0
2017-10-14T05:20:32.047Z,0
2017-10-14T05:21:32.758Z,4
2017-10-14T05:22:33.470Z,4
2017-10-14T05:23:34.183Z,0
2017-10-14T05:24:34.895Z,4
2017-10-14T05:25:35.624Z,4
2017-10-14T05:26:36.334Z,8
2017-10-14T05:27:37.047Z,8
2017-10-14T05:28:37.763Z,8
2017-10-14T05:29:38.475Z,8
2017-10-14T05:30:39.189Z,12
2017-10-14T05:31:39.902Z,16
2017-10-14T05:32:40.629Z,16
2017-10-14T05:33:41.358Z,20
2017-10-14T05:34:42.073Z,24
2017-10-14T05:35:42.786Z,28
2017-10-14T05:36:43.499Z,36
2017-10-14T05:37:44.213Z,44
2017-10-14T05:38:44.925Z,52
2017-10-14T05:39:45.641Z,56
2017-10-14T05:40:46.354Z,68
2017-10-14T05:41:47.080Z,80
2017-10-14T05:42:47.800Z,92
2017-10-14T05:43:48.508Z,100
2017-10-14T05:44:49.235Z,112
2017-10-14T05:45:49.951Z,128
2017-10-14T05:46:50.680Z,140
2017-10-14T05:47:51.399Z,156
2017-10-14T05:48:52.109Z,176
2017-10-14T05:49:52.825Z,196
2017-10-14T05:50:53.541Z,212
2017-10-14T05:51:54.257Z,236
2017-10-14T05:52:54.984Z,256
2017-10-14T05:53:55.698Z,280
2017-10-14T05:54:56.415Z,304
2017-10-14T05:55:57.131Z,328
2017-10-14T05:56:57.847Z,352
2017-10-14T05:57:58.564Z,380
2017-10-14T05:58:59.283Z,412
2017-10-14T05:59:59.999Z,436
2017-10-14T06:01:00.729Z,472
2017-10-14T06:02:01.445Z,500
2017-10-14T06:03:02.161Z,536
2017-10-14T06:04:02.878Z,568
2017-10-14T06:05:03.593Z,604
2017-10-14T06:06:04.311Z,640
2017-10-14T06:07:05.026Z,676
2017-10-14T06:08:05.741Z,716
2017-10-14T06:09:06.458Z,748
2017-10-14T06:10:07.176Z,808
2017-10-14T06:11:07.903Z,864
2017-10-14T06:12:08.620Z,920
2017-10-14T06:13:09.336Z,972
2017-10-14T06:14:10.053Z,1028
2017-10-14T06:15:10.772Z,1080
2017-10-14T06:16:11.489Z,1132
2017-10-14T06:17:12.206Z,1176
2017-10-14T06:18:12.926Z,1224
2017-10-14T06:19:13.642Z,1296
2017-10-14T06:20:14.374Z,1356
2017-10-14T06:21:15.091Z,1428
2017-10-14T06:22:15.822Z,1496
2017-10-14T06:23:16.554Z,1556
2017-10-14T06:24:17.271Z,1632
2017-10-14T06:25:18.004Z,1744
2017-10-14T06:26:18.723Z,1848
2017-10-14T06:27:19.439Z,1972
2017-10-14T06:28:20.158Z,2036
2017-10-14T06:29:20.877Z,2192
2017-10-14T06:30:21.594Z,2352
2017-10-14T06:31:22.327Z,2452
2017-10-14T06:32:23.045Z,2572
2017-10-14T06:33:23.779Z,2696
2017-10-14T06:34:24.498Z,2852
2017-10-14T06:35:25.216Z,2992
2017-10-14T06:36:25.934Z,3028
2017-10-14T06:37:26.654Z,3124
2017-10-14T06:38:27.371Z,3148
2017-10-14T06:39:28.091Z,3340
2017-10-14T06:40:28.810Z,3420
2017-10-14T06:41:29.542Z,3480
2017-10-14T06:42:30.260Z,3636
2017-10-14T06:43:30.983Z,3800
2017-10-14T06:44:31.718Z,3948
2017-10-14T06:45:32.437Z,4124
2017-10-14T06:46:33.160Z,4212
2017-10-14T06:47:33.881Z,4400
2017-10-14T06:48:34.601Z,4588
2017-10-14T06:49:35.322Z,4644
2017-10-14T06:50:36.043Z,4840
2017-10-14T06:51:36.767Z,4952
2017-10-14T06:52:37.486Z,5320
2017-10-14T06:53:38.206Z,5588
2017-10-14T06:54:38.941Z,5744
2017-10-14T06:55:39.662Z,5772
2017-10-14T06:56:40.382Z,5980
2017-10-14T06:57:41.104Z,6156
2017-10-14T06:58:41.840Z,6332
2017-10-14T06:59:42.562Z,6448
2017-10-14T07:00:43.296Z,6672
2017-10-14T07:01:44.016Z,6992
2017-10-14T07:02:44.740Z,7068
2017-10-14T07:03:45.477Z,7316
2017-10-14T07:04:46.197Z,7452
2017-10-14T07:05:46.921Z,7540
2017-10-14T07:06:47.644Z,7616
2017-10-14T07:07:48.366Z,8096
2017-10-14T07:08:49.101Z,8040
2017-10-14T07:09:49.824Z,8472
2017-10-14T07:10:50.546Z,8644
2017-10-14T07:11:51.268Z,8844
2017-10-14T07:12:51.990Z,9160
2017-10-14T07:13:52.728Z,9296
2017-10-14T07:14:53.450Z,9720
2017-10-14T07:15:54.173Z,9932
2017-10-14T07:16:54.897Z,10452
2017-10-14T07:17:55.623Z,10608
2017-10-14T07:18:56.346Z,10672
2017-10-14T07:19:57.081Z,10592
2017-10-14T07:20:57.810Z,11180
2017-10-14T07:21:58.546Z,11788
2017-10-14T07:22:59.285Z,12076
2017-10-14T07:24:00.010Z,12216
2017-10-14T07:25:00.735Z,12372
2017-10-14T07:26:01.475Z,12912
2017-10-14T07:27:02.212Z,13044
2017-10-14T07:28:02.938Z,12568
2017-10-14T07:29:03.665Z,12276
2017-10-14T07:30:04.391Z,11828
2017-10-14T07:31:05.121Z,11500
2017-10-14T07:32:05.843Z,10792
2017-10-14T07:33:06.583Z,10752
2017-10-14T07:34:07.310Z,11144
2017-10-14T07:35:08.052Z,12512
2017-10-14T07:36:08.781Z,13952
2017-10-14T07:37:09.501Z,14272
2017-10-14T07:38:10.231Z,14400
2017-10-14T07:39:10.975Z,14432
2017-10-14T07:40:11.696Z,14592
2017-10-14T07:41:12.437Z,14560
2017-10-14T07:42:13.163Z,14752
2017-10-14T07:43:13.890Z,15776
2017-10-14T07:44:14.633Z,16544
2017-10-14T07:45:15.358Z,17088
2017-10-14T07:46:16.086Z,17216
2017-10-14T07:47:16.812Z,17408
2017-10-14T07:48:17.539Z,17824
2017-10-14T07:49:18.265Z,18528
2017-10-14T07:50:18.991Z,18880
2017-10-14T07:51:19.719Z,18560
2017-10-14T07:52:20.447Z,18336
2017-10-14T07:53:21.175Z,19200
2017-10-14T07:54:21.910Z,19616
2017-10-14T07:55:22.630Z,19456
2017-10-14T07:56:23.358Z,20544
2017-10-14T07:57:24.087Z,21056
2017-10-14T07:58:24.828Z,21120
2017-10-14T07:59:25.554Z,21248
2017-10-14T08:00:26.295Z,21536
2017-10-14T08:01:27.033Z,21888
2017-10-14T08:02:27.777Z,22752
2017-10-14T08:03:28.518Z,22368
2017-10-14T08:04:29.243Z,22912
2017-10-14T08:05:29.984Z,23488
2017-10-14T08:06:30.710Z,24448
2017-10-14T08:07:31.438Z,24672
2017-10-14T08:08:32.164Z,24672
2017-10-14T08:09:32.891Z,26144
2017-10-14T08:10:33.619Z,26304
2017-10-14T08:11:34.351Z,25824
2017-10-14T08:12:35.078Z,26848
2017-10-14T08:13:35.806Z,26272
2017-10-14T08:14:36.535Z,26240
2017-10-14T08:15:37.265Z,27200
2017-10-14T08:16:38.005Z,27072
2017-10-14T08:17:38.738Z,27328
2017-10-14T08:18:39.473Z,28032
2017-10-14T08:19:40.197Z,29376
2017-10-14T08:20:40.929Z,28896
2017-10-14T08:21:41.657Z,27712
2017-10-14T08:22:42.399Z,27616
2017-10-14T08:23:43.131Z,28352
2017-10-14T08:24:43.879Z,30016
2017-10-14T08:25:44.611Z,31040
2017-10-14T08:26:45.343Z,31360
2017-10-14T08:27:46.089Z,31040
2017-10-14T08:28:46.821Z,31008
2017-10-14T08:29:47.554Z,30976
2017-10-14T08:30:48.301Z,30624
2017-10-14T08:31:49.034Z,30848
2017-10-14T08:32:49.769Z,31552
2017-10-14T08:33:50.501Z,31968
2017-10-14T08:34:51.233Z,32608
2017-10-14T08:35:51.977Z,32352
2017-10-14T08:36:52.715Z,32224
2017-10-14T08:37:53.445Z,32992
2017-10-14T08:38:54.194Z,33184
2017-10-14T08:39:54.927Z,33280
2017-10-14T08:40:55.659Z,33984
2017-10-14T08:41:56.391Z,34304
2017-10-14T08:42:57.126Z,35200
2017-10-14T08:43:57.856Z,34528
2017-10-14T08:44:58.585Z,34592
2017-10-14T08:45:59.332Z,34912
2017-10-14T08:47:00.074Z,36256
2017-10-14T08:48:00.804Z,36480
2017-10-14T08:49:01.534Z,36896
2017-10-14T08:50:02.318Z,36160
2017-10-14T08:51:03.118Z,35616
2017-10-14T08:52:03.863Z,35552
2017-10-14T08:53:04.595Z,35232
2017-10-14T08:54:05.330Z,35296
2017-10-14T08:55:06.061Z,36416
2017-10-14T08:56:06.790Z,36832
2017-10-14T08:57:07.520Z,36704
2017-10-14T08:58:08.252Z,37120
2017-10-14T08:59:08.982Z,37152
2017-10-14T09:00:09.712Z,36864
2017-10-14T09:01:10.440Z,37120
2017-10-14T09:02:11.173Z,36128
2017-10-14T09:03:11.900Z,35424
2017-10-14T09:04:12.644Z,35552
2017-10-14T09:05:13.373Z,37152
2017-10-14T09:06:14.105Z,37632
2017-10-14T09:07:14.835Z,38976
2017-10-14T09:08:15.579Z,39584
2017-10-14T09:09:16.325Z,40192
2017-10-14T09:10:17.059Z,40576
2017-10-14T09:11:17.789Z,40064
2017-10-14T09:12:18.520Z,40640
2017-10-14T09:13:19.266Z,40864
2017-10-14T09:14:19.998Z,40640
2017-10-14T09:15:20.729Z,40608
2017-10-14T09:16:21.461Z,40896
2017-10-14T09:17:22.191Z,40992
2017-10-14T09:18:22.922Z,41728
2017-10-14T09:19:23.655Z,42720
2017-10-14T09:20:24.402Z,43456
2017-10-14T09:21:25.134Z,43392
2017-10-14T09:22:25.866Z,42560
2017-10-14T09:23:26.598Z,42848
2017-10-14T09:24:27.346Z,42176
2017-10-14T09:25:28.076Z,42272
2017-10-14T09:26:28.808Z,42688
2017-10-14T09:27:29.557Z,44032
2017-10-14T09:28:30.289Z,45856
2017-10-14T09:29:31.036Z,45952
2017-10-14T09:30:31.769Z,45824
2017-10-14T09:31:32.499Z,44704
2017-10-14T09:32:33.231Z,44192
2017-10-14T09:33:33.965Z,43904
2017-10-14T09:34:34.698Z,43776
2017-10-14T09:35:35.431Z,42816
2017-10-14T09:36:36.177Z,42624
2017-10-14T09:37:36.908Z,42976
2017-10-14T09:38:37.638Z,43168
2017-10-14T09:39:38.372Z,44576
2017-10-14T09:40:39.106Z,44416
2017-10-14T09:41:39.837Z,45056
2017-10-14T09:42:40.583Z,45792
2017-10-14T09:43:41.330Z,46560
2017-10-14T09:44:42.064Z,46944
2017-10-14T09:45:42.796Z,46528
2017-10-14T09:46:43.532Z,46208
2017-10-14T09:47:44.265Z,46016
2017-10-14T09:48:44.998Z,47104
2017-10-14T09:49:45.732Z,47328
2017-10-14T09:50:46.465Z,48480
2017-10-14T09:51:47.200Z,48640
2017-10-14T09:52:47.952Z,49056
2017-10-14T09:53:48.682Z,49888
2017-10-14T09:54:49.432Z,50496
2017-10-14T09:55:50.151Z,49888
2017-10-14T09:56:50.896Z,50560
2017-10-14T09:57:51.630Z,49760
2017-10-14T09:58:52.365Z,48992
2017-10-14T09:59:53.098Z,48576
2017-10-14T10:00:53.837Z,48928
2017-10-14T10:01:54.563Z,48992
2017-10-14T10:02:55.313Z,48320
2017-10-14T10:03:56.044Z,48000
2017-10-14T10:04:56.777Z,48256
2017-10-14T10:05:57.508Z,48640
2017-10-14T10:06:58.240Z,48640
2017-10-14T10:07:58.986Z,50528
2017-10-14T10:08:59.731Z,50336
2017-10-14T10:10:00.467Z,50656
2017-10-14T10:11:01.200Z,51200
2017-10-14T10:12:01.934Z,51744
2017-10-14T10:13:02.667Z,52032
2017-10-14T10:14:03.401Z,51072
2017-10-14T10:15:04.137Z,50496
2017-10-14T10:16:04.884Z,48512
2017-10-14T10:17:05.635Z,48384
2017-10-14T10:18:06.369Z,47168
2017-10-14T10:19:07.114Z,49888
2017-10-14T10:20:07.862Z,50048
2017-10-14T10:21:08.599Z,50560
2017-10-14T10:22:09.329Z,49888
2017-10-14T10:23:10.063Z,52224
2017-10-14T10:24:10.810Z,52256
2017-10-14T10:25:11.547Z,51968
2017-10-14T10:26:12.277Z,50368
2017-10-14T10:27:13.011Z,51008
2017-10-14T10:28:13.746Z,48992
2017-10-14T10:29:14.481Z,49664
2017-10-14T10:30:15.215Z,48512
2017-10-14T10:31:15.949Z,46880
2017-10-14T10:32:16.682Z,47424
2017-10-14T10:33:17.417Z,46944
2017-10-14T10:34:18.151Z,46944
2017-10-14T10:35:18.884Z,45696
2017-10-14T10:36:19.620Z,44928
2017-10-14T10:37:20.353Z,45152
2017-10-14T10:38:21.085Z,43712
2017-10-14T10:39:21.824Z,43968
2017-10-14T10:40:22.558Z,44000
2017-10-14T10:41:23.299Z,44160
2017-10-14T10:42:24.047Z,44768
2017-10-14T10:43:24.779Z,45408
2017-10-14T10:44:25.526Z,45440
2017-10-14T10:45:26.261Z,45408
2017-10-14T10:46:27.007Z,45120
2017-10-14T10:47:27.740Z,45024
2017-10-14T10:48:28.474Z,44928
2017-10-14T10:49:29.209Z,43168
2017-10-14T10:50:29.945Z,44800
2017-10-14T10:51:30.692Z,45472
2017-10-14T10:52:31.414Z,45344
2017-10-14T10:53:32.148Z,44928
2017-10-14T10:54:32.886Z,45760
2017-10-14T10:55:33.632Z,46272
2017-10-14T10:56:34.371Z,46016
2017-10-14T10:57:35.099Z,47840
2017-10-14T10:58:35.833Z,49664
2017-10-14T10:59:36.567Z,48320
2017-10-14T11:00:37.316Z,48448
2017-10-14T11:01:38.068Z,50336
2017-10-14T11:02:38.797Z,50720
2017-10-14T11:03:39.533Z,50080
2017-10-14T11:04:40.262Z,6944
2017-10-14T11:05:40.995Z,48672
2017-10-14T11:06:41.729Z,45568
2017-10-14T11:07:42.462Z,47488
2017-10-14T11:08:43.194Z,46304
2017-10-14T11:09:43.928Z,46624
2017-10-14T11:10:44.659Z,6616
2017-10-14T11:11:45.391Z,47488
2017-10-14T11:12:46.137Z,35072
2017-10-14T11:13:46.871Z,8992
2017-10-14T11:14:47.601Z,48160
2017-10-14T11:15:48.334Z,43872
2017-10-14T11:16:49.077Z,47712
2017-10-14T11:17:49.807Z,7356
2017-10-14T11:18:50.555Z,13772
2017-10-14T11:19:51.298Z,51264
2017-10-14T11:20:52.041Z,14368
2017-10-14T11:21:52.774Z,36608
2017-10-14T11:22:53.506Z,49632
2017-10-14T11:23:54.237Z,50176
2017-10-14T11:24:54.969Z,36608
2017-10-14T11:25:55.699Z,29216
2017-10-14T11:26:56.433Z,52096
2017-10-14T11:27:57.163Z,52896
2017-10-14T11:28:57.896Z,53120
2017-10-14T11:29:58.627Z,51488
2017-10-14T11:30:59.360Z,52800
2017-10-14T11:32:00.092Z,29280
2017-10-14T11:33:00.828Z,33056
2017-10-14T11:34:01.557Z,48160
2017-10-14T11:35:02.290Z,50272
2017-10-14T11:36:03.034Z,49248
2017-10-14T11:37:03.782Z,54112
2017-10-14T11:38:04.513Z,12876
2017-10-14T11:39:05.245Z,55584
2017-10-14T11:40:05.993Z,54560
2017-10-14T11:41:06.725Z,52576
2017-10-14T11:42:07.463Z,54208
2017-10-14T11:43:08.190Z,36960
2017-10-14T11:44:08.936Z,31936
2017-10-14T11:45:09.668Z,52704
2017-10-14T11:46:10.411Z,22720
2017-10-14T11:47:11.159Z,55136
2017-10-14T11:48:11.891Z,56288
2017-10-14T11:49:12.638Z,55648
2017-10-14T11:50:13.374Z,54336
2017-10-14T11:51:14.105Z,52192
2017-10-14T11:52:14.838Z,52864
2017-10-14T11:53:15.572Z,54528
2017-10-14T11:54:16.307Z,53856
2017-10-14T11:55:17.038Z,10156
2017-10-14T11:56:17.774Z,41024
2017-10-14T11:57:18.504Z,13396
2017-10-14T11:58:19.248Z,54624
2017-10-14T11:59:19.995Z,48992
2017-10-14T12:00:20.725Z,48960
2017-10-14T12:01:21.461Z,50624
2017-10-14T12:02:22.191Z,51328
2017-10-14T12:03:22.923Z,45472
2017-10-14T12:04:23.671Z,51232
2017-10-14T12:05:24.388Z,24320
2017-10-14T12:06:25.121Z,52768
2017-10-14T12:07:25.854Z,50208
2017-10-14T12:08:26.587Z,32480
2017-10-14T12:09:27.318Z,26176
2017-10-14T12:10:28.064Z,34240
2017-10-14T12:11:28.796Z,39008
2017-10-14T12:12:29.528Z,47424
2017-10-14T12:13:30.261Z,47104
2017-10-14T12:14:30.995Z,46944
2017-10-14T12:15:31.725Z,10508
2017-10-14T12:16:32.476Z,48288
2017-10-14T12:17:33.200Z,54304
2017-10-14T12:18:33.933Z,33728
2017-10-14T12:19:34.677Z,50272
2017-10-14T12:20:35.420Z,12320
2017-10-14T12:21:36.165Z,17184
2017-10-14T12:22:36.895Z,18976
2017-10-14T12:23:37.625Z,11144
2017-10-14T12:24:38.355Z,28736
2017-10-14T12:25:39.087Z,47552
2017-10-14T12:26:39.830Z,13292
2017-10-14T12:27:40.559Z,45824
2017-10-14T12:28:41.290Z,46688
2017-10-14T12:29:42.019Z,11680
2017-10-14T12:30:42.764Z,43968
2017-10-14T12:31:43.494Z,7612
2017-10-14T12:32:44.226Z,40768
2017-10-14T12:33:44.971Z,14500
2017-10-14T12:34:45.713Z,41856
2017-10-14T12:35:46.445Z,41440
2017-10-14T12:36:47.177Z,14408
2017-10-14T12:37:47.908Z,13456
2017-10-14T12:38:48.636Z,8704
2017-10-14T12:39:49.365Z,9200
2017-10-14T12:40:50.096Z,41440
2017-10-14T12:41:50.827Z,36832
2017-10-14T12:42:51.558Z,39520
2017-10-14T12:43:52.291Z,39136
2017-10-14T12:44:53.021Z,38656
2017-10-14T12:45:53.752Z,39200
2017-10-14T12:46:54.483Z,38112
2017-10-14T12:47:55.215Z,38080
2017-10-14T12:48:55.947Z,37312
2017-10-14T12:49:56.680Z,34720
2017-10-14T12:50:57.413Z,38304
2017-10-14T12:51:58.147Z,6968
2017-10-14T12:52:58.874Z,40160
2017-10-14T12:53:59.606Z,22624
2017-10-14T12:55:00.338Z,38944
2017-10-14T12:56:01.068Z,23776
2017-10-14T12:57:01.797Z,7172
2017-10-14T12:58:02.530Z,34880
2017-10-14T12:59:03.261Z,30720
2017-10-14T13:00:03.992Z,38272
2017-10-14T13:01:04.720Z,8888
2017-10-14T13:02:05.452Z,30560
2017-10-14T13:03:06.184Z,37792
2017-10-14T13:04:06.913Z,34304
2017-10-14T13:05:07.645Z,38304
2017-10-14T13:06:08.379Z,37536
2017-10-14T13:07:09.110Z,37376
2017-10-14T13:08:09.841Z,36608
2017-10-14T13:09:10.587Z,35424
2017-10-14T13:10:11.320Z,34464
2017-10-14T13:11:12.064Z,34048
2017-10-14T13:12:12.795Z,35040
2017-10-14T13:13:13.541Z,36352
2017-10-14T13:14:14.273Z,36192
2017-10-14T13:15:15.007Z,34656
2017-10-14T13:16:15.736Z,34848
2017-10-14T13:17:16.484Z,11156
2017-10-14T13:18:17.226Z,33184
2017-10-14T13:19:17.973Z,29600
2017-10-14T13:20:18.704Z,32064
2017-10-14T13:21:19.437Z,31328
2017-10-14T13:22:20.167Z,29440
2017-10-14T13:23:20.896Z,24384
2017-10-14T13:24:21.630Z,32416
2017-10-14T13:25:22.363Z,32928
2017-10-14T13:26:23.093Z,22880
2017-10-14T13:27:23.827Z,32672
2017-10-14T13:28:24.555Z,32224
2017-10-14T13:29:25.287Z,31328
2017-10-14T13:30:26.019Z,31712
2017-10-14T13:31:26.766Z,32416
2017-10-14T13:32:27.495Z,31264
2017-10-14T13:33:28.240Z,30368
2017-10-14T13:34:28.970Z,28288
2017-10-14T13:35:29.702Z,27616
2017-10-14T13:36:30.448Z,27264
2017-10-14T13:37:31.180Z,27872
2017-10-14T13:38:31.924Z,27200
2017-10-14T13:39:32.653Z,12920
2017-10-14T13:40:33.385Z,26016
2017-10-14T13:41:34.129Z,26336
2017-10-14T13:42:34.849Z,25984
2017-10-14T13:43:35.580Z,25984
2017-10-14T13:44:36.312Z,26144
2017-10-14T13:45:37.042Z,25120
2017-10-14T13:46:37.773Z,24864
2017-10-14T13:47:38.507Z,24768
2017-10-14T13:48:39.237Z,24576
2017-10-14T13:49:39.979Z,24000
2017-10-14T13:50:40.711Z,23936